Ferrysburg, Michigan
Current Conditions -  °F | °C
As of 1:55 PM on Thursday 23 Oct 2014 (Local Time) from KMKG Reporting Station
Broken Clouds Broken Clouds  
Wind Chill: 55°   Ceiling: 1900
Heat Index: 55°   Visibility: 10mi
Dew Point: 45°   Wind: 12mph
Humidity: 69%   Direction: 190°S
Pressure: 30.18"   Gusts: NA
Location:  43.08°N, 86.22°W
Report Text: KMKG 231755Z 19010KT 10SM BKN019 13/07 A3018 RMK AO2 SLP225 I6001 T01280072 10133 20000 56012
Loading
Personal Weather Stations






























Interactive Weather Map
Tropical Storm Tracking
New forecast layout! Learn more

10-Day Weather Forecast

Advertisements
Track Severe Weather on mobile